createdAt,value
2023-05-19T00:01:48.660Z,12.00
2023-05-19T00:04:47.883Z,12.10
2023-05-19T00:07:46.693Z,12.20
2023-05-19T00:10:45.058Z,12.30
2023-05-19T00:13:43.003Z,12.50
2023-05-19T00:16:42.820Z,12.60
2023-05-19T00:19:40.729Z,12.70
2023-05-19T00:22:38.554Z,12.80
2023-05-19T00:25:36.319Z,12.90
2023-05-19T00:28:34.145Z,13.10
2023-05-19T00:31:33.394Z,13.10
2023-05-19T00:34:31.235Z,13.20
2023-05-19T00:37:29.111Z,13.30
2023-05-19T00:40:27.788Z,13.40
2023-05-19T00:43:25.779Z,13.50
2023-05-19T00:46:23.717Z,13.70
2023-05-19T00:49:21.847Z,13.90
2023-05-19T00:52:19.782Z,14.00
2023-05-19T00:55:17.818Z,14.20
2023-05-19T00:58:16.791Z,14.40
2023-05-19T01:01:17.628Z,14.70
2023-05-19T01:04:20.797Z,14.90
2023-05-19T01:07:19.320Z,15.20
2023-05-19T01:10:17.158Z,15.40
2023-05-19T01:13:15.336Z,15.60
2023-05-19T01:16:39.425Z,15.80
2023-05-19T01:19:56.826Z,16.00
2023-05-19T01:23:24.493Z,16.10
2023-05-19T01:26:42.469Z,16.20
2023-05-19T01:30:16.221Z,16.30
2023-05-19T01:33:15.822Z,16.50
2023-05-19T01:36:15.980Z,16.70
2023-05-19T01:39:14.748Z,16.80
2023-05-19T01:42:14.098Z,16.90
2023-05-19T01:45:12.814Z,17.00
2023-05-19T01:48:11.284Z,17.00
2023-05-19T01:51:09.190Z,17.10
2023-05-19T01:54:07.085Z,17.00
2023-05-19T01:57:23.785Z,16.80
2023-05-19T02:00:52.000Z,16.70
2023-05-19T02:04:14.041Z,16.50
2023-05-19T02:07:37.714Z,16.60
2023-05-19T02:10:41.668Z,16.60
2023-05-19T02:13:44.006Z,16.60
2023-05-19T02:16:44.952Z,16.70
2023-05-19T02:19:44.747Z,17.10
2023-05-19T02:22:43.034Z,16.80
2023-05-19T02:25:41.001Z,16.50
2023-05-19T02:28:38.881Z,16.90
2023-05-19T02:31:36.715Z,17.00
2023-05-19T02:34:34.614Z,17.10
2023-05-19T02:37:33.260Z,17.00
2023-05-19T02:40:31.395Z,16.80
2023-05-19T02:43:31.101Z,16.50
2023-05-19T02:46:28.891Z,16.50
2023-05-19T02:49:26.838Z,16.50
2023-05-19T02:52:24.591Z,16.40
2023-05-19T02:55:22.432Z,16.30
2023-05-19T02:58:20.904Z,16.30
2023-05-19T03:01:19.036Z,16.60
2023-05-19T03:04:16.990Z,16.90
2023-05-19T03:07:16.103Z,17.10
2023-05-19T03:10:13.819Z,17.60
2023-05-19T03:13:11.825Z,17.80
2023-05-19T03:16:09.685Z,17.90
2023-05-19T03:19:07.927Z,17.50
2023-05-19T03:22:05.961Z,17.20
2023-05-19T03:25:03.976Z,17.70
2023-05-19T03:28:02.180Z,17.40
2023-05-19T03:31:00.184Z,17.00
2023-05-19T03:33:58.382Z,16.60
2023-05-19T03:36:56.355Z,16.50
2023-05-19T03:39:54.174Z,17.20
2023-05-19T03:42:52.005Z,17.30
2023-05-19T03:45:49.826Z,17.60
2023-05-19T03:48:47.682Z,17.60
2023-05-19T03:51:45.519Z,17.30
2023-05-19T03:54:43.702Z,17.30
2023-05-19T03:57:43.807Z,17.30
2023-05-19T04:00:42.526Z,16.70
2023-05-19T04:03:40.393Z,17.20
2023-05-19T04:06:38.394Z,17.90
2023-05-19T04:09:36.486Z,17.80
2023-05-19T04:12:34.312Z,17.80
2023-05-19T04:15:32.111Z,17.80
2023-05-19T04:18:30.029Z,18.60
2023-05-19T04:21:28.197Z,18.60
2023-05-19T04:24:26.093Z,19.00
2023-05-19T04:27:24.160Z,19.40
2023-05-19T04:30:23.069Z,19.70
2023-05-19T04:33:20.761Z,19.00
2023-05-19T04:36:21.967Z,19.20
2023-05-19T04:39:19.826Z,19.50
2023-05-19T04:42:19.769Z,19.70
2023-05-19T04:45:17.565Z,19.90
2023-05-19T04:48:15.722Z,20.20
2023-05-19T04:51:14.655Z,20.40
2023-05-19T04:54:12.543Z,20.60
2023-05-19T04:57:13.451Z,20.70
2023-05-19T05:00:14.998Z,20.60
2023-05-19T05:03:15.226Z,21.00
2023-05-19T05:06:13.220Z,19.80
2023-05-19T05:09:10.946Z,19.80
2023-05-19T05:12:09.640Z,20.60
2023-05-19T05:15:08.164Z,21.10
2023-05-19T05:18:06.321Z,21.50
2023-05-19T05:21:04.529Z,21.50
2023-05-19T05:24:02.617Z,21.90
2023-05-19T05:27:00.640Z,21.90
2023-05-19T05:29:59.272Z,21.90
2023-05-19T05:32:57.674Z,22.00
2023-05-19T05:35:55.593Z,21.90
2023-05-19T05:38:53.373Z,21.70
2023-05-19T05:41:51.196Z,20.30
2023-05-19T05:44:48.932Z,20.50
2023-05-19T05:47:47.566Z,20.90
2023-05-19T05:50:46.558Z,20.80
2023-05-19T05:53:50.964Z,19.90
2023-05-19T05:56:49.400Z,18.60
2023-05-19T05:59:47.918Z,18.70
2023-05-19T06:02:47.848Z,18.80
2023-05-19T06:05:45.827Z,18.80
2023-05-19T06:08:43.647Z,18.80
2023-05-19T06:11:41.667Z,19.00
2023-05-19T06:14:39.384Z,18.90
2023-05-19T06:17:37.305Z,18.90
2023-05-19T06:20:35.512Z,18.90
2023-05-19T06:23:33.497Z,18.80
2023-05-19T06:26:31.249Z,18.80
2023-05-19T06:29:29.047Z,18.80
2023-05-19T06:32:26.949Z,18.80
2023-05-19T06:35:24.864Z,18.80
2023-05-19T06:38:22.792Z,18.90
2023-05-19T06:41:22.383Z,18.90
2023-05-19T06:44:23.075Z,19.20
2023-05-19T06:47:21.296Z,19.50
2023-05-19T06:50:19.274Z,19.70
2023-05-19T06:53:20.004Z,19.80
2023-05-19T06:56:19.471Z,20.10
2023-05-19T06:59:17.555Z,20.30
2023-05-19T07:02:15.589Z,20.50
2023-05-19T07:05:13.687Z,20.50
2023-05-19T07:08:11.679Z,20.60
2023-05-19T07:11:09.772Z,20.60
2023-05-19T07:14:07.735Z,20.80
2023-05-19T07:17:06.067Z,20.70
2023-05-19T07:20:07.334Z,20.70
2023-05-19T07:23:06.038Z,20.70
2023-05-19T07:26:04.642Z,21.00
2023-05-19T07:29:02.606Z,21.40
2023-05-19T07:32:00.754Z,21.70
2023-05-19T07:34:58.989Z,21.80
2023-05-19T07:37:56.710Z,21.90
2023-05-19T07:40:54.619Z,22.00
2023-05-19T07:43:52.501Z,22.00
2023-05-19T07:46:50.391Z,21.50
2023-05-19T07:49:50.307Z,20.60
2023-05-19T07:52:49.664Z,19.50
2023-05-19T07:55:47.625Z,19.10
2023-05-19T07:58:45.716Z,18.90
2023-05-19T08:01:43.711Z,18.50
2023-05-19T08:04:41.613Z,18.80
2023-05-19T08:07:39.545Z,18.80
2023-05-19T08:10:37.371Z,19.30
2023-05-19T08:13:35.351Z,18.80
2023-05-19T08:16:33.412Z,18.50
2023-05-19T08:19:31.243Z,18.70
2023-05-19T08:22:29.035Z,18.80
2023-05-19T08:25:26.791Z,18.70
2023-05-19T08:28:24.651Z,18.90
2023-05-19T08:31:23.017Z,18.60
2023-05-19T08:34:21.310Z,18.30
2023-05-19T08:37:19.012Z,18.40
2023-05-19T08:40:19.083Z,18.40
2023-05-19T08:43:16.877Z,18.70
2023-05-19T08:46:17.032Z,19.00
2023-05-19T08:49:17.420Z,19.20
2023-05-19T08:52:36.690Z,19.40
2023-05-19T08:55:42.778Z,19.50
2023-05-19T08:58:44.390Z,19.70
2023-05-19T09:01:46.521Z,19.80
2023-05-19T09:04:46.550Z,20.00
2023-05-19T09:07:45.194Z,20.00
2023-05-19T09:10:43.003Z,20.10
2023-05-19T09:13:40.977Z,20.20
2023-05-19T09:16:39.760Z,20.10
2023-05-19T09:19:43.093Z,20.40
2023-05-19T09:22:43.720Z,20.40
2023-05-19T09:25:49.923Z,20.40
2023-05-19T09:28:48.371Z,20.50
2023-05-19T09:31:54.977Z,20.70
2023-05-19T09:34:54.767Z,20.70
2023-05-19T09:37:53.351Z,20.80
2023-05-19T09:40:52.257Z,20.90
2023-05-19T09:43:57.818Z,21.00
2023-05-19T09:46:56.079Z,21.10
2023-05-19T09:49:54.669Z,21.20
2023-05-19T09:52:53.637Z,21.10
2023-05-19T09:55:55.972Z,21.20
2023-05-19T09:58:54.234Z,21.40
2023-05-19T10:01:55.152Z,21.60
2023-05-19T10:04:55.515Z,21.60
2023-05-19T10:07:55.361Z,21.60
2023-05-19T10:10:53.442Z,21.70
2023-05-19T10:13:52.689Z,21.60
2023-05-19T10:16:53.669Z,21.60
2023-05-19T10:19:53.209Z,21.70
2023-05-19T10:22:51.000Z,21.60
2023-05-19T10:25:49.862Z,21.90
2023-05-19T10:28:48.532Z,21.80
2023-05-19T10:31:48.537Z,21.90
2023-05-19T10:35:16.985Z,22.00
2023-05-19T10:38:33.836Z,21.60
2023-05-19T10:41:47.037Z,21.90
2023-05-19T10:45:13.453Z,21.80
2023-05-19T10:48:14.978Z,21.90
2023-05-19T10:51:12.736Z,21.60
2023-05-19T10:54:14.399Z,21.30
2023-05-19T10:57:16.878Z,21.10
2023-05-19T11:00:30.816Z,21.10
2023-05-19T11:06:32.526Z,21.40
2023-05-19T11:09:39.997Z,21.50
2023-05-19T11:12:46.052Z,21.40
2023-05-19T11:15:45.934Z,21.50
2023-05-19T11:18:48.332Z,21.60
2023-05-19T11:21:52.969Z,21.60
2023-05-19T11:24:53.203Z,21.80
2023-05-19T11:27:53.227Z,22.10
2023-05-19T11:30:52.586Z,21.90
2023-05-19T11:33:51.018Z,21.40
2023-05-19T11:36:49.414Z,21.20
2023-05-19T11:39:47.846Z,21.00
2023-05-19T11:42:45.843Z,20.70
2023-05-19T11:45:43.609Z,21.00
2023-05-19T11:48:41.726Z,21.30
2023-05-19T11:51:40.155Z,21.10
2023-05-19T11:54:38.289Z,20.80
2023-05-19T11:57:36.740Z,20.80
2023-05-19T12:00:40.528Z,20.80
2023-05-19T12:03:38.997Z,21.00
2023-05-19T12:06:38.118Z,20.70
2023-05-19T12:09:36.189Z,20.70
2023-05-19T12:12:36.684Z,20.90
2023-05-19T12:15:34.711Z,21.00
2023-05-19T12:18:38.061Z,21.20
2023-05-19T12:21:37.215Z,20.60
2023-05-19T12:24:37.136Z,20.80
2023-05-19T12:27:38.776Z,20.50
2023-05-19T12:30:37.926Z,20.20
2023-05-19T12:33:36.404Z,19.90
2023-05-19T12:36:34.344Z,19.80
2023-05-19T12:39:32.888Z,19.80
2023-05-19T12:42:31.906Z,19.70
2023-05-19T12:45:34.256Z,19.40
2023-05-19T12:48:32.291Z,19.20
2023-05-19T12:51:30.162Z,19.20
2023-05-19T12:54:28.250Z,19.10
2023-05-19T12:57:27.133Z,19.10
2023-05-19T13:00:29.388Z,19.10
2023-05-19T13:03:27.401Z,19.10
2023-05-19T13:06:25.285Z,19.10
2023-05-19T13:09:23.261Z,19.00
2023-05-19T13:12:21.556Z,18.90
2023-05-19T13:15:19.510Z,18.90
2023-05-19T13:18:19.134Z,18.90
2023-05-19T13:21:17.116Z,18.80
2023-05-19T13:24:15.542Z,19.00
2023-05-19T13:27:13.807Z,19.00
2023-05-19T13:30:12.661Z,19.00
2023-05-19T13:33:10.716Z,18.90
2023-05-19T13:36:08.902Z,18.80
2023-05-19T13:39:07.168Z,18.70
2023-05-19T13:42:05.645Z,18.60
2023-05-19T13:45:04.149Z,18.50
2023-05-19T13:48:03.317Z,18.60
2023-05-19T13:51:01.785Z,18.60
2023-05-19T13:53:59.871Z,18.60
2023-05-19T13:56:58.036Z,18.70
2023-05-19T14:00:03.341Z,18.70
2023-05-19T14:03:02.686Z,18.80
2023-05-19T14:06:00.774Z,18.80
2023-05-19T14:08:59.232Z,18.80
2023-05-19T14:11:57.515Z,18.70
2023-05-19T14:14:55.545Z,18.70
2023-05-19T14:17:54.902Z,17.80
2023-05-19T14:20:52.959Z,17.20
2023-05-19T14:23:51.154Z,17.00
2023-05-19T14:26:50.132Z,16.90
2023-05-19T14:29:49.802Z,16.50
2023-05-19T14:32:48.258Z,16.40
2023-05-19T14:35:48.238Z,16.40
2023-05-19T14:38:46.447Z,16.10
2023-05-19T14:41:44.704Z,16.10
2023-05-19T14:44:42.707Z,16.10
2023-05-19T14:47:41.183Z,16.10
2023-05-19T14:50:40.750Z,16.10
2023-05-19T14:53:38.892Z,16.00
2023-05-19T14:56:36.895Z,15.70
2023-05-19T14:59:38.604Z,15.70
2023-05-19T15:02:38.076Z,15.70
2023-05-19T15:05:37.650Z,15.80
2023-05-19T15:08:35.654Z,15.80
2023-05-19T15:11:33.992Z,15.60
2023-05-19T15:14:32.263Z,15.40
2023-05-19T15:17:30.472Z,15.10
2023-05-19T15:20:29.611Z,15.10
2023-05-19T15:23:27.993Z,15.20
2023-05-19T15:26:29.082Z,15.10
2023-05-19T15:29:27.803Z,15.10
2023-05-19T15:32:25.876Z,15.00
2023-05-19T15:35:24.252Z,14.90
2023-05-19T15:38:22.390Z,14.90
2023-05-19T15:41:20.651Z,14.80
2023-05-19T15:44:19.189Z,14.80
2023-05-19T15:47:17.394Z,14.70
2023-05-19T15:50:16.912Z,14.70
2023-05-19T15:53:15.301Z,14.70
2023-05-19T15:56:14.039Z,14.70
2023-05-19T15:59:12.109Z,14.70
2023-05-19T16:02:10.190Z,14.70
2023-05-19T16:05:08.638Z,14.30
2023-05-19T16:08:08.669Z,14.30
2023-05-19T16:11:07.110Z,14.30
2023-05-19T16:14:05.226Z,14.30
2023-05-19T16:17:04.709Z,14.30
2023-05-19T16:20:02.801Z,14.20
2023-05-19T16:23:00.905Z,14.10
2023-05-19T16:25:58.982Z,14.10
2023-05-19T16:28:57.363Z,14.10
2023-05-19T16:31:55.429Z,14.00
2023-05-19T16:34:53.613Z,13.90
2023-05-19T16:37:51.928Z,14.00
2023-05-19T16:40:50.050Z,13.90
2023-05-19T16:43:48.250Z,13.90
2023-05-19T16:46:46.373Z,13.90
2023-05-19T16:49:45.345Z,14.00
2023-05-19T16:52:43.968Z,14.10
2023-05-19T16:55:41.923Z,14.10
2023-05-19T16:58:40.021Z,14.20
2023-05-19T17:01:38.258Z,14.20
2023-05-19T17:04:36.388Z,14.30
2023-05-19T17:07:34.354Z,14.30
2023-05-19T17:10:32.646Z,14.30
2023-05-19T17:13:34.159Z,14.30
2023-05-19T17:16:32.269Z,14.30
2023-05-19T17:19:30.308Z,14.30
2023-05-19T17:22:30.218Z,14.20
2023-05-19T17:25:28.365Z,14.20
2023-05-19T17:28:26.518Z,14.30
2023-05-19T17:31:24.498Z,14.30
2023-05-19T17:34:22.660Z,14.30
2023-05-19T17:37:24.006Z,14.20
2023-05-19T17:40:22.328Z,14.30
2023-05-19T17:43:20.278Z,14.30
2023-05-19T17:46:18.543Z,14.30
2023-05-19T17:49:16.585Z,14.20
2023-05-19T17:52:16.739Z,14.20
2023-05-19T17:55:15.404Z,14.20
2023-05-19T17:58:13.748Z,14.10
2023-05-19T18:01:11.860Z,14.20
2023-05-19T18:04:10.495Z,14.30
2023-05-19T18:07:09.912Z,14.30
2023-05-19T18:10:09.110Z,14.20
2023-05-19T18:13:07.807Z,14.20
2023-05-19T18:16:06.097Z,14.10
2023-05-19T18:19:05.008Z,14.00
2023-05-19T18:22:03.182Z,13.90
2023-05-19T18:25:01.187Z,13.80
2023-05-19T18:27:59.340Z,13.80
2023-05-19T18:31:01.940Z,13.60
2023-05-19T18:34:00.245Z,13.60
2023-05-19T18:36:58.288Z,13.50
2023-05-19T18:39:56.560Z,13.50
2023-05-19T18:42:54.522Z,13.50
2023-05-19T18:45:52.930Z,13.40
2023-05-19T18:48:51.673Z,13.40
2023-05-19T18:51:50.415Z,13.40
2023-05-19T18:54:48.558Z,13.40
2023-05-19T18:57:47.510Z,13.40
2023-05-19T19:00:45.689Z,13.50
2023-05-19T19:03:45.579Z,13.50
2023-05-19T19:06:43.956Z,13.50
2023-05-19T19:09:44.276Z,13.50
2023-05-19T19:12:42.710Z,13.50
2023-05-19T19:15:40.869Z,13.50
2023-05-19T19:18:39.110Z,13.50
2023-05-19T19:21:37.246Z,13.50
2023-05-19T19:24:36.401Z,13.60
2023-05-19T19:27:36.231Z,13.60
2023-05-19T19:30:34.523Z,13.60
2023-05-19T19:33:32.892Z,13.60
2023-05-19T19:36:30.939Z,13.60
2023-05-19T19:39:29.029Z,13.50
2023-05-19T19:42:27.045Z,13.60
2023-05-19T19:45:25.257Z,13.60
2023-05-19T19:48:23.200Z,13.70
2023-05-19T19:51:21.302Z,13.70
2023-05-19T19:54:19.617Z,13.70
2023-05-19T19:57:18.040Z,13.80
2023-05-19T20:00:16.694Z,13.90
2023-05-19T20:03:14.833Z,13.90
2023-05-19T20:06:15.680Z,13.90
2023-05-19T20:09:13.837Z,13.90
2023-05-19T20:12:11.792Z,13.90
2023-05-19T20:15:10.367Z,13.90
2023-05-19T20:18:08.395Z,13.80
2023-05-19T20:21:06.560Z,13.70
2023-05-19T20:24:04.964Z,13.60
2023-05-19T20:27:03.146Z,13.60
2023-05-19T20:30:01.297Z,13.50
2023-05-19T20:32:59.486Z,13.60
2023-05-19T20:35:57.415Z,13.60
2023-05-19T20:38:55.530Z,13.50
2023-05-19T20:41:53.524Z,13.50
2023-05-19T20:44:52.020Z,13.50
2023-05-19T20:47:50.036Z,13.50
2023-05-19T20:50:48.265Z,13.50
2023-05-19T20:53:46.450Z,13.50
2023-05-19T20:56:44.741Z,13.50
2023-05-19T20:59:42.808Z,13.50
2023-05-19T21:02:41.386Z,13.50
2023-05-19T21:05:39.792Z,13.50
2023-05-19T21:08:38.121Z,13.40
2023-05-19T21:11:36.088Z,13.50
2023-05-19T21:14:34.285Z,13.50
2023-05-19T21:17:32.571Z,13.40
2023-05-19T21:20:30.849Z,13.40
2023-05-19T21:23:28.966Z,13.40
2023-05-19T21:26:27.469Z,13.40
2023-05-19T21:29:26.676Z,13.50
2023-05-19T21:32:25.012Z,13.40
2023-05-19T21:35:23.064Z,13.40
2023-05-19T21:38:24.223Z,13.40
2023-05-19T21:41:22.908Z,13.40
2023-05-19T21:44:22.522Z,13.40
2023-05-19T21:47:20.534Z,13.30
2023-05-19T21:50:18.740Z,13.20
2023-05-19T21:53:16.881Z,13.00
2023-05-19T21:56:15.001Z,12.90
2023-05-19T21:59:12.981Z,12.80
2023-05-19T22:02:11.245Z,12.70
2023-05-19T22:05:09.857Z,12.70
2023-05-19T22:08:08.278Z,12.60
2023-05-19T22:11:06.399Z,12.60
2023-05-19T22:14:04.651Z,12.60
2023-05-19T22:17:02.600Z,12.60
2023-05-19T22:20:00.734Z,12.60
2023-05-19T22:22:59.952Z,12.60
2023-05-19T22:25:58.007Z,12.70
2023-05-19T22:28:57.149Z,12.70
2023-05-19T22:31:55.197Z,12.70
2023-05-19T22:34:53.350Z,12.70
2023-05-19T22:37:51.654Z,12.70
2023-05-19T22:40:50.699Z,12.60
2023-05-19T22:43:48.633Z,12.70
2023-05-19T22:46:46.439Z,12.70
2023-05-19T22:49:44.523Z,12.70
2023-05-19T22:52:42.462Z,12.80
2023-05-19T22:55:40.266Z,12.90
2023-05-19T22:58:38.060Z,12.90
2023-05-19T23:01:35.997Z,13.00
2023-05-19T23:04:34.629Z,13.10
2023-05-19T23:07:32.445Z,13.10
2023-05-19T23:10:30.148Z,13.10
2023-05-19T23:13:27.957Z,13.10
2023-05-19T23:16:25.871Z,13.20
2023-05-19T23:19:23.858Z,13.20
2023-05-19T23:22:21.556Z,13.10
2023-05-19T23:25:19.476Z,13.00
2023-05-19T23:28:17.643Z,13.00
2023-05-19T23:31:15.668Z,13.00
2023-05-19T23:34:13.435Z,12.80
2023-05-19T23:37:12.220Z,12.80
2023-05-19T23:40:10.670Z,12.80
2023-05-19T23:43:08.628Z,12.70
2023-05-19T23:46:06.446Z,12.80
2023-05-19T23:49:04.279Z,12.70
2023-05-19T23:52:01.960Z,12.70
2023-05-19T23:54:59.821Z,12.60
2023-05-19T23:57:57.571Z,12.70
